createdAt,value
2018-12-15T00:01:04.764Z,1.37
2018-12-15T00:03:35.192Z,1.46
2018-12-15T00:06:05.648Z,1.41
2018-12-15T00:08:36.088Z,1.37
2018-12-15T00:11:06.523Z,1.33
2018-12-15T00:13:38.528Z,1.36
2018-12-15T00:16:08.980Z,1.36
2018-12-15T00:18:39.514Z,1.45
2018-12-15T00:21:09.907Z,1.44
2018-12-15T00:23:40.415Z,1.36
2018-12-15T00:26:10.858Z,1.39
2018-12-15T00:28:41.302Z,1.37
2018-12-15T00:31:11.785Z,1.50
2018-12-15T00:33:42.228Z,1.41
2018-12-15T00:36:12.675Z,1.45
2018-12-15T00:38:43.149Z,1.48
2018-12-15T00:41:13.679Z,1.47
2018-12-15T00:43:44.079Z,1.48
2018-12-15T00:46:14.455Z,1.35
2018-12-15T00:48:44.893Z,1.50
2018-12-15T00:51:15.338Z,1.50
2018-12-15T00:53:45.822Z,1.59
2018-12-15T00:56:16.239Z,1.47
2018-12-15T00:58:46.663Z,1.48
2018-12-15T01:01:17.096Z,1.46
2018-12-15T01:03:47.670Z,1.44
2018-12-15T01:06:18.121Z,1.50
2018-12-15T01:08:48.538Z,1.42
2018-12-15T01:11:19.042Z,1.47
2018-12-15T01:13:49.426Z,1.35
2018-12-15T01:16:19.933Z,1.35
2018-12-15T01:18:50.344Z,1.43
2018-12-15T01:21:20.750Z,1.53
2018-12-15T01:23:51.190Z,1.51
2018-12-15T01:26:21.659Z,1.45
2018-12-15T01:28:52.094Z,1.43
2018-12-15T01:31:22.635Z,1.58
2018-12-15T01:33:53.059Z,1.50
2018-12-15T01:36:23.518Z,1.46
2018-12-15T01:38:53.916Z,1.49
2018-12-15T01:41:24.406Z,1.51
2018-12-15T01:43:54.807Z,1.47
2018-12-15T01:46:25.203Z,1.43
2018-12-15T01:48:55.637Z,1.57
2018-12-15T01:51:26.034Z,1.56
2018-12-15T01:53:56.502Z,1.63
2018-12-15T01:56:26.915Z,1.64
2018-12-15T01:58:57.349Z,1.50
2018-12-15T02:01:27.808Z,1.56
2018-12-15T02:03:58.255Z,1.55
2018-12-15T02:06:28.702Z,1.50
2018-12-15T02:08:59.133Z,1.42
2018-12-15T02:11:29.583Z,1.48
2018-12-15T02:14:00.120Z,1.41
2018-12-15T02:16:30.523Z,1.43
2018-12-15T02:19:00.954Z,1.53
2018-12-15T02:21:31.506Z,1.50
2018-12-15T02:24:01.893Z,1.44
2018-12-15T02:26:32.320Z,1.58
2018-12-15T02:29:02.659Z,1.42
2018-12-15T02:31:33.017Z,1.40
2018-12-15T02:34:03.590Z,1.40
2018-12-15T02:36:34.055Z,1.54
2018-12-15T02:39:06.662Z,1.51
2018-12-15T02:41:37.111Z,1.55
2018-12-15T02:44:07.525Z,1.39
2018-12-15T02:46:37.988Z,1.41
2018-12-15T02:49:08.427Z,1.49
2018-12-15T02:51:38.901Z,1.35
2018-12-15T02:54:09.361Z,1.39
2018-12-15T02:56:39.871Z,1.47
2018-12-15T02:59:10.178Z,1.42
2018-12-15T03:01:40.536Z,1.49
2018-12-15T03:04:10.919Z,1.44
2018-12-15T03:06:41.264Z,1.39
2018-12-15T03:09:11.713Z,1.35
2018-12-15T03:11:42.226Z,1.39
2018-12-15T03:14:12.642Z,1.41
2018-12-15T03:16:58.802Z,1.28
2018-12-15T03:19:29.244Z,1.27
2018-12-15T03:21:59.723Z,1.30
2018-12-15T03:24:30.558Z,1.31
2018-12-15T03:27:01.061Z,1.32
2018-12-15T03:29:31.476Z,1.23
2018-12-15T03:32:01.871Z,1.25
2018-12-15T03:34:32.327Z,1.07
2018-12-15T03:37:02.754Z,1.22
2018-12-15T03:39:33.184Z,1.23
2018-12-15T03:42:03.630Z,1.29
2018-12-15T03:44:34.073Z,1.25
2018-12-15T03:47:04.525Z,1.27
2018-12-15T03:49:34.999Z,1.10
2018-12-15T03:52:05.420Z,1.09
2018-12-15T03:54:35.838Z,1.06
2018-12-15T03:57:06.425Z,1.11
2018-12-15T03:59:37.028Z,1.17
2018-12-15T04:02:07.874Z,1.26
2018-12-15T04:04:38.337Z,1.25
2018-12-15T04:07:08.692Z,1.17
2018-12-15T04:09:39.198Z,1.13
2018-12-15T04:12:09.648Z,1.10
2018-12-15T04:14:39.998Z,1.13
2018-12-15T04:17:15.080Z,1.14
2018-12-15T04:19:47.741Z,1.21
2018-12-15T04:22:21.637Z,1.22
2018-12-15T04:24:52.161Z,1.19
2018-12-15T04:27:22.575Z,1.18
2018-12-15T04:29:53.054Z,1.28
2018-12-15T04:32:23.670Z,1.24
2018-12-15T04:34:54.362Z,1.26
2018-12-15T04:37:24.857Z,1.15
2018-12-15T04:39:55.402Z,1.20
2018-12-15T04:42:25.743Z,1.15
2018-12-15T04:44:56.130Z,1.19
2018-12-15T04:47:26.864Z,1.11
2018-12-15T04:49:57.283Z,1.16
2018-12-15T04:52:27.684Z,1.09
2018-12-15T04:54:58.237Z,1.19
2018-12-15T04:57:28.769Z,1.13
2018-12-15T04:59:59.149Z,1.17
2018-12-15T05:02:29.658Z,1.08
2018-12-15T05:05:00.091Z,1.17
2018-12-15T05:07:30.507Z,1.18
2018-12-15T05:10:01.033Z,1.08
2018-12-15T05:12:31.597Z,1.09
2018-12-15T05:15:02.064Z,1.14
2018-12-15T05:17:32.545Z,1.10
2018-12-15T05:20:03.023Z,1.06
2018-12-15T05:22:33.435Z,1.13
2018-12-15T05:25:04.175Z,1.16
2018-12-15T05:27:34.622Z,1.23
2018-12-15T05:30:06.179Z,1.21
2018-12-15T05:32:36.697Z,1.20
2018-12-15T05:35:07.229Z,1.21
2018-12-15T05:37:37.731Z,1.11
2018-12-15T05:40:08.410Z,1.03
2018-12-15T05:42:38.856Z,1.15
2018-12-15T05:45:09.457Z,1.24
2018-12-15T05:47:39.926Z,1.21
2018-12-15T05:50:10.307Z,1.23
2018-12-15T05:52:40.768Z,1.21
2018-12-15T05:55:11.291Z,1.16
2018-12-15T05:57:41.795Z,1.17
2018-12-15T06:00:12.380Z,1.17
2018-12-15T06:02:43.044Z,1.17
2018-12-15T06:05:13.807Z,1.12
2018-12-15T06:07:44.422Z,1.05
2018-12-15T06:10:14.864Z,1.09
2018-12-15T06:12:45.312Z,1.15
2018-12-15T06:15:15.932Z,1.18
2018-12-15T06:17:46.435Z,1.19
2018-12-15T06:20:16.859Z,1.26
2018-12-15T06:22:47.305Z,1.19
2018-12-15T06:25:17.749Z,1.20
2018-12-15T06:27:48.294Z,1.27
2018-12-15T06:30:18.772Z,1.20
2018-12-15T06:32:49.113Z,1.14
2018-12-15T06:35:19.561Z,1.13
2018-12-15T06:37:49.973Z,1.22
2018-12-15T06:40:20.400Z,1.18
2018-12-15T06:42:50.847Z,1.20
2018-12-15T06:45:21.243Z,1.19
2018-12-15T06:47:51.599Z,1.20
2018-12-15T06:50:22.024Z,1.23
2018-12-15T06:52:52.556Z,1.19
2018-12-15T06:55:22.964Z,1.12
2018-12-15T06:57:53.394Z,1.13
2018-12-15T07:00:23.856Z,1.09
2018-12-15T07:02:54.214Z,1.09
2018-12-15T07:05:24.605Z,1.07
2018-12-15T07:07:55.062Z,1.03
2018-12-15T07:10:25.491Z,1.09
2018-12-15T07:12:55.948Z,1.04
2018-12-15T07:15:26.429Z,1.09
2018-12-15T07:17:56.891Z,1.01
2018-12-15T07:20:27.315Z,1.04
2018-12-15T07:22:57.790Z,1.05
2018-12-15T07:25:28.173Z,1.01
2018-12-15T07:27:58.571Z,1.05
2018-12-15T07:30:29.088Z,1.11
2018-12-15T07:32:59.554Z,1.10
2018-12-15T07:35:30.020Z,1.06
2018-12-15T07:38:00.476Z,1.08
2018-12-15T07:40:30.927Z,1.08
2018-12-15T07:43:01.404Z,1.09
2018-12-15T07:45:31.792Z,1.03
2018-12-15T07:48:02.259Z,1.03
2018-12-15T07:50:32.728Z,0.96
2018-12-15T07:53:03.157Z,0.98
2018-12-15T07:55:33.673Z,0.97
2018-12-15T07:58:04.222Z,0.96
2018-12-15T08:00:34.684Z,0.88
2018-12-15T08:03:05.280Z,0.85
2018-12-15T08:05:35.730Z,0.82
2018-12-15T08:08:06.281Z,0.89
2018-12-15T08:10:42.037Z,0.96
2018-12-15T08:13:16.635Z,0.95
2018-12-15T08:15:47.021Z,0.92
2018-12-15T08:18:18.256Z,0.91
2018-12-15T08:20:48.685Z,0.91
2018-12-15T08:23:19.179Z,0.86
2018-12-15T08:25:49.669Z,0.88
2018-12-15T08:28:20.275Z,0.89
2018-12-15T08:30:50.825Z,0.93
2018-12-15T08:33:21.288Z,0.90
2018-12-15T08:35:51.819Z,0.94
2018-12-15T08:38:22.180Z,0.94
2018-12-15T08:40:52.687Z,0.96
2018-12-15T08:43:25.040Z,0.90
2018-12-15T08:45:56.102Z,0.91
2018-12-15T08:48:26.559Z,0.95
2018-12-15T08:50:57.395Z,0.90
2018-12-15T08:53:27.852Z,0.99
2018-12-15T08:55:59.044Z,0.99
2018-12-15T08:58:29.558Z,0.97
2018-12-15T09:01:00.075Z,1.00
2018-12-15T09:03:30.722Z,0.99
2018-12-15T09:06:01.182Z,1.01
2018-12-15T09:08:31.557Z,1.05
2018-12-15T09:11:02.027Z,1.08
2018-12-15T09:13:32.479Z,1.08
2018-12-15T09:16:02.940Z,1.03
2018-12-15T09:18:33.490Z,0.97
2018-12-15T09:21:04.043Z,1.05
2018-12-15T09:23:34.574Z,1.03
2018-12-15T09:26:04.999Z,1.01
2018-12-15T09:28:35.466Z,1.01
2018-12-15T09:31:05.934Z,1.03
2018-12-15T09:33:36.353Z,0.99
2018-12-15T09:36:06.846Z,1.06
2018-12-15T09:38:37.337Z,1.02
2018-12-15T09:41:07.800Z,0.99
2018-12-15T09:43:38.279Z,0.90
2018-12-15T09:46:08.782Z,0.90
2018-12-15T09:48:39.262Z,0.89
2018-12-15T09:51:09.768Z,0.97
2018-12-15T09:53:40.358Z,1.00
2018-12-15T09:56:10.781Z,0.97
2018-12-15T09:58:41.253Z,1.10
2018-12-15T10:01:11.767Z,1.03
2018-12-15T10:03:42.337Z,0.99
2018-12-15T10:06:12.753Z,1.06
2018-12-15T10:08:43.173Z,0.98
2018-12-15T10:11:13.616Z,1.06
2018-12-15T10:13:44.027Z,1.06
2018-12-15T10:16:16.426Z,1.10
2018-12-15T10:18:46.827Z,1.03
2018-12-15T10:21:18.467Z,1.05
2018-12-15T10:23:48.910Z,1.04
2018-12-15T10:26:19.458Z,1.01
2018-12-15T10:28:49.909Z,1.07
2018-12-15T10:31:25.669Z,0.99
2018-12-15T10:33:57.136Z,0.89
2018-12-15T10:36:27.950Z,0.87
2018-12-15T10:38:58.563Z,0.97
2018-12-15T10:41:29.018Z,1.01
2018-12-15T10:43:59.486Z,0.96
2018-12-15T10:46:30.035Z,0.98
2018-12-15T10:49:00.476Z,1.00
2018-12-15T10:51:31.900Z,0.97
2018-12-15T10:54:03.377Z,1.03
2018-12-15T10:56:33.807Z,1.08
2018-12-15T10:59:04.343Z,1.06
2018-12-15T11:01:34.875Z,1.08
2018-12-15T11:04:05.534Z,1.08
2018-12-15T11:06:36.031Z,1.08
2018-12-15T11:09:08.947Z,1.18
2018-12-15T11:11:39.450Z,1.11
2018-12-15T11:14:09.992Z,1.01
2018-12-15T11:16:40.495Z,1.00
2018-12-15T11:19:11.063Z,0.93
2018-12-15T11:21:41.524Z,0.97
2018-12-15T11:24:12.055Z,0.98
2018-12-15T11:26:42.678Z,0.99
2018-12-15T11:29:13.183Z,0.99
2018-12-15T11:31:43.619Z,1.03
2018-12-15T11:34:14.108Z,1.09
2018-12-15T11:36:44.615Z,1.17
2018-12-15T11:39:15.106Z,1.09
2018-12-15T11:41:45.519Z,1.08
2018-12-15T11:44:16.066Z,1.12
2018-12-15T11:46:46.581Z,1.12
2018-12-15T11:49:16.983Z,1.12
2018-12-15T11:51:47.483Z,1.16
2018-12-15T11:54:17.893Z,1.12
2018-12-15T11:56:48.348Z,1.00
2018-12-15T11:59:19.337Z,1.08
2018-12-15T12:01:49.892Z,1.11
2018-12-15T12:04:20.483Z,1.13
2018-12-15T12:06:51.178Z,1.20
2018-12-15T12:09:21.767Z,1.27
2018-12-15T12:11:52.281Z,1.24
2018-12-15T12:14:22.813Z,1.18
2018-12-15T12:16:53.360Z,1.22
2018-12-15T12:19:23.853Z,1.12
2018-12-15T12:21:54.341Z,1.05
2018-12-15T12:24:24.798Z,1.07
2018-12-15T12:26:55.318Z,1.08
2018-12-15T12:29:25.801Z,1.08
2018-12-15T12:31:56.326Z,1.14
2018-12-15T12:34:26.841Z,1.05
2018-12-15T12:36:57.268Z,1.00
2018-12-15T12:39:27.739Z,0.98
2018-12-15T12:41:58.181Z,1.04
2018-12-15T12:44:28.587Z,1.06
2018-12-15T12:46:59.163Z,1.04
2018-12-15T12:49:29.637Z,1.00
2018-12-15T12:52:00.056Z,0.96
2018-12-15T12:54:30.477Z,1.02
2018-12-15T12:57:01.021Z,1.02
2018-12-15T12:59:31.567Z,1.00
2018-12-15T13:02:01.987Z,1.11
2018-12-15T13:04:32.444Z,1.11
2018-12-15T13:07:04.769Z,1.10
2018-12-15T13:09:35.347Z,1.18
2018-12-15T13:12:06.019Z,1.22
2018-12-15T13:14:36.633Z,1.26
2018-12-15T13:17:06.991Z,1.25
2018-12-15T13:19:37.594Z,1.24
2018-12-15T13:22:08.035Z,1.24
2018-12-15T13:24:38.726Z,1.22
2018-12-15T13:27:09.299Z,1.14
2018-12-15T13:29:39.812Z,1.14
2018-12-15T13:32:10.846Z,1.13
2018-12-15T13:34:41.258Z,1.09
2018-12-15T13:37:11.982Z,1.12
2018-12-15T13:39:42.373Z,1.17
2018-12-15T13:42:13.311Z,1.17
2018-12-15T13:44:43.778Z,1.19
2018-12-15T13:47:14.212Z,1.13
2018-12-15T13:49:44.737Z,1.15
2018-12-15T13:52:15.429Z,1.11
2018-12-15T13:54:45.921Z,1.14
2018-12-15T13:57:16.365Z,1.07
2018-12-15T13:59:46.784Z,1.06
2018-12-15T14:02:17.314Z,1.02
2018-12-15T14:04:47.789Z,0.97
2018-12-15T14:07:18.356Z,1.02
2018-12-15T14:09:48.831Z,1.05
2018-12-15T14:12:19.321Z,1.06
2018-12-15T14:14:49.742Z,1.04
2018-12-15T14:17:20.196Z,1.00
2018-12-15T14:19:50.624Z,0.98
2018-12-15T14:22:21.088Z,0.99
2018-12-15T14:24:51.563Z,1.02
2018-12-15T14:27:22.112Z,1.07
2018-12-15T14:29:52.602Z,1.08
2018-12-15T14:32:23.112Z,1.01
2018-12-15T14:34:54.804Z,0.99
2018-12-15T14:37:25.201Z,0.96
2018-12-15T14:39:55.670Z,1.01
2018-12-15T14:42:26.166Z,1.01
2018-12-15T14:44:56.660Z,0.94
2018-12-15T14:47:27.151Z,0.91
2018-12-15T14:49:58.164Z,0.94
2018-12-15T14:52:28.613Z,0.93
2018-12-15T14:55:00.514Z,0.93
2018-12-15T14:57:30.989Z,0.88
2018-12-15T15:00:01.496Z,0.85
2018-12-15T15:02:31.882Z,0.89
2018-12-15T15:05:02.341Z,0.88
2018-12-15T15:07:33.134Z,0.85
2018-12-15T15:10:04.076Z,0.81
2018-12-15T15:12:34.469Z,0.86
2018-12-15T15:15:05.882Z,0.79
2018-12-15T15:17:36.368Z,0.76
2018-12-15T15:20:09.762Z,0.74
2018-12-15T15:22:40.260Z,0.77
2018-12-15T15:25:11.050Z,0.78
2018-12-15T15:27:42.637Z,0.72
2018-12-15T15:30:13.548Z,0.72
2018-12-15T15:32:45.921Z,0.69
2018-12-15T15:35:16.649Z,0.69
2018-12-15T15:37:47.149Z,0.75
2018-12-15T15:40:17.664Z,0.73
2018-12-15T15:42:48.095Z,0.73
2018-12-15T15:45:18.583Z,0.74
2018-12-15T15:47:49.868Z,0.70
2018-12-15T15:50:20.420Z,0.68
2018-12-15T15:52:50.898Z,0.67
2018-12-15T15:55:21.385Z,0.64
2018-12-15T15:57:51.876Z,0.57
2018-12-15T16:00:22.434Z,0.57
2018-12-15T16:02:53.118Z,0.54
2018-12-15T16:05:23.590Z,0.56
2018-12-15T16:07:54.070Z,0.54
2018-12-15T16:10:24.400Z,0.52
2018-12-15T16:12:55.288Z,0.53
2018-12-15T16:15:26.519Z,0.56
2018-12-15T16:17:56.972Z,0.57
2018-12-15T16:20:28.161Z,0.53
2018-12-15T16:22:58.619Z,0.51
2018-12-15T16:25:29.215Z,0.46
2018-12-15T16:27:59.699Z,0.41
2018-12-15T16:30:30.400Z,0.36
2018-12-15T16:33:00.859Z,0.32
2018-12-15T16:35:31.347Z,0.33
2018-12-15T16:38:01.803Z,0.35
2018-12-15T16:40:32.696Z,0.28
2018-12-15T16:43:03.582Z,0.27
2018-12-15T16:45:34.113Z,0.24
2018-12-15T16:48:04.655Z,0.23
2018-12-15T16:50:35.110Z,0.20
2018-12-15T16:53:05.689Z,0.20
2018-12-15T16:55:36.135Z,0.21
2018-12-15T16:58:06.691Z,0.19
2018-12-15T17:00:37.231Z,0.18
2018-12-15T17:03:07.646Z,0.13
2018-12-15T17:05:38.194Z,0.15
2018-12-15T17:08:08.665Z,0.18
2018-12-15T17:10:39.144Z,0.15
2018-12-15T17:13:09.701Z,0.13
2018-12-15T17:15:40.083Z,0.13
2018-12-15T17:18:10.679Z,0.13
2018-12-15T17:20:41.065Z,0.10
2018-12-15T17:23:11.502Z,0.06
2018-12-15T17:25:41.971Z,0.02
2018-12-15T17:28:12.739Z,-0.02
2018-12-15T17:30:43.172Z,-0.05
2018-12-15T17:33:13.723Z,-0.04
2018-12-15T17:35:44.246Z,-0.03
2018-12-15T17:38:14.762Z,-0.02
2018-12-15T17:40:45.225Z,-0.04
2018-12-15T17:43:15.676Z,-0.05
2018-12-15T17:45:46.144Z,-0.08
2018-12-15T17:48:16.623Z,-0.11
2018-12-15T17:50:47.092Z,-0.10
2018-12-15T17:53:17.539Z,-0.10
2018-12-15T17:55:47.942Z,-0.06
2018-12-15T17:58:18.395Z,-0.12
2018-12-15T18:00:48.955Z,-0.11
2018-12-15T18:03:19.303Z,-0.16
2018-12-15T18:05:49.807Z,-0.16
2018-12-15T18:08:20.284Z,-0.20
2018-12-15T18:10:50.688Z,-0.21
2018-12-15T18:13:21.139Z,-0.23
2018-12-15T18:15:51.800Z,-0.23
2018-12-15T18:18:22.225Z,-0.24
2018-12-15T18:20:52.659Z,-0.26
2018-12-15T18:23:23.106Z,-0.25
2018-12-15T18:25:53.491Z,-0.23
2018-12-15T18:28:23.929Z,-0.24
2018-12-15T18:30:55.360Z,-0.28
2018-12-15T18:33:27.032Z,-0.29
2018-12-15T18:35:58.023Z,-0.30
2018-12-15T18:38:28.415Z,-0.28
2018-12-15T18:40:58.839Z,-0.33
2018-12-15T18:43:29.228Z,-0.33
2018-12-15T18:45:59.669Z,-0.31
2018-12-15T18:48:30.681Z,-0.33
2018-12-15T18:51:02.176Z,-0.36
2018-12-15T18:53:32.775Z,-0.34
2018-12-15T18:56:03.260Z,-0.36
2018-12-15T18:58:33.791Z,-0.39
2018-12-15T19:01:05.236Z,-0.38
2018-12-15T19:03:35.781Z,-0.41
2018-12-15T19:06:06.302Z,-0.40
2018-12-15T19:08:36.897Z,-0.38
2018-12-15T19:11:07.377Z,-0.40
2018-12-15T19:13:37.943Z,-0.40
2018-12-15T19:16:08.410Z,-0.44
2018-12-15T19:18:38.916Z,-0.43
2018-12-15T19:21:09.431Z,-0.41
2018-12-15T19:23:39.963Z,-0.44
2018-12-15T19:26:10.384Z,-0.44
2018-12-15T19:28:40.880Z,-0.44
2018-12-15T19:31:11.642Z,-0.46
2018-12-15T19:33:42.112Z,-0.41
2018-12-15T19:36:12.780Z,-0.41
2018-12-15T19:38:43.270Z,-0.44
2018-12-15T19:41:13.742Z,-0.41
2018-12-15T19:43:44.205Z,-0.40
2018-12-15T19:46:14.643Z,-0.41
2018-12-15T19:48:45.186Z,-0.37
2018-12-15T19:51:15.640Z,-0.37
2018-12-15T19:53:47.608Z,-0.38
2018-12-15T19:56:18.226Z,-0.40
2018-12-15T19:58:48.730Z,-0.39
2018-12-15T20:01:19.211Z,-0.40
2018-12-15T20:03:49.703Z,-0.40
2018-12-15T20:06:20.556Z,-0.41
2018-12-15T20:08:50.960Z,-0.41
2018-12-15T20:11:21.380Z,-0.44
2018-12-15T20:13:52.099Z,-0.45
2018-12-15T20:16:22.576Z,-0.43
2018-12-15T20:18:53.055Z,-0.41
2018-12-15T20:21:23.551Z,-0.43
2018-12-15T20:23:54.100Z,-0.45
2018-12-15T20:26:24.601Z,-0.47
2018-12-15T20:28:55.118Z,-0.46
2018-12-15T20:31:25.537Z,-0.46
2018-12-15T20:33:56.008Z,-0.46
2018-12-15T20:36:26.543Z,-0.46
2018-12-15T20:38:57.042Z,-0.49
2018-12-15T20:41:27.601Z,-0.49
2018-12-15T20:43:58.127Z,-0.49
2018-12-15T20:46:28.693Z,-0.51
2018-12-15T20:48:59.251Z,-0.53
2018-12-15T20:51:29.670Z,-0.52
2018-12-15T20:54:00.161Z,-0.53
2018-12-15T20:56:30.623Z,-0.52
2018-12-15T20:59:01.229Z,-0.53
2018-12-15T21:01:33.679Z,-0.51
2018-12-15T21:04:04.186Z,-0.51
2018-12-15T21:06:34.744Z,-0.51
2018-12-15T21:09:07.592Z,-0.56
2018-12-15T21:11:38.132Z,-0.52
2018-12-15T21:14:08.588Z,-0.56
2018-12-15T21:16:39.047Z,-0.57
2018-12-15T21:19:09.522Z,-0.57
2018-12-15T21:21:40.006Z,-0.54
2018-12-15T21:24:15.901Z,-0.55
2018-12-15T21:26:46.476Z,-0.56
2018-12-15T21:29:18.323Z,-0.54
2018-12-15T21:31:49.266Z,-0.57
2018-12-15T21:34:20.021Z,-0.58
2018-12-15T21:36:50.479Z,-0.57
2018-12-15T21:39:21.715Z,-0.56
2018-12-15T21:41:52.183Z,-0.58
2018-12-15T21:44:22.973Z,-0.56
2018-12-15T21:46:53.487Z,-0.56
2018-12-15T21:49:23.932Z,-0.57
2018-12-15T21:51:56.418Z,-0.57
2018-12-15T21:54:27.238Z,-0.57
2018-12-15T21:56:57.737Z,-0.60
2018-12-15T21:59:28.357Z,-0.57
2018-12-15T22:01:58.937Z,-0.56
2018-12-15T22:04:29.441Z,-0.59
2018-12-15T22:06:59.979Z,-0.61
2018-12-15T22:09:30.463Z,-0.60
2018-12-15T22:12:00.996Z,-0.61
2018-12-15T22:14:31.508Z,-0.60
2018-12-15T22:17:02.113Z,-0.59
2018-12-15T22:19:32.728Z,-0.59
2018-12-15T22:22:03.898Z,-0.58
2018-12-15T22:24:34.394Z,-0.59
2018-12-15T22:27:04.854Z,-0.59
2018-12-15T22:29:35.302Z,-0.57
2018-12-15T22:32:05.965Z,-0.54
2018-12-15T22:34:36.447Z,-0.53
2018-12-15T22:37:06.935Z,-0.49
2018-12-15T22:39:37.697Z,-0.51
2018-12-15T22:42:08.163Z,-0.50
2018-12-15T22:44:38.742Z,-0.51
2018-12-15T22:47:09.223Z,-0.50
2018-12-15T22:49:39.733Z,-0.51
2018-12-15T22:52:10.140Z,-0.49
2018-12-15T22:54:40.665Z,-0.46
2018-12-15T22:57:11.156Z,-0.47
2018-12-15T22:59:42.025Z,-0.45
2018-12-15T23:02:12.478Z,-0.45
2018-12-15T23:04:42.927Z,-0.44
2018-12-15T23:07:13.471Z,-0.41
2018-12-15T23:09:43.987Z,-0.43
2018-12-15T23:12:14.557Z,-0.35
2018-12-15T23:14:45.022Z,-0.37
2018-12-15T23:17:15.532Z,-0.38
2018-12-15T23:19:46.003Z,-0.35
2018-12-15T23:22:16.577Z,-0.35
2018-12-15T23:24:47.119Z,-0.31
2018-12-15T23:27:17.611Z,-0.26
2018-12-15T23:29:48.626Z,-0.24
2018-12-15T23:32:19.105Z,-0.21
2018-12-15T23:34:49.622Z,-0.23
2018-12-15T23:37:20.080Z,-0.22
2018-12-15T23:39:50.582Z,-0.20
2018-12-15T23:42:21.112Z,-0.23
2018-12-15T23:44:51.750Z,-0.19
2018-12-15T23:47:22.189Z,-0.20
2018-12-15T23:49:52.730Z,-0.17
2018-12-15T23:52:23.535Z,-0.14
2018-12-15T23:54:54.160Z,-0.13
2018-12-15T23:57:24.695Z,-0.11
2018-12-15T23:59:55.140Z,-0.08
